createdAt,value
2018-11-14T00:03:02.918Z,8.78
2018-11-14T00:06:05.828Z,9.63
2018-11-14T00:09:09.702Z,8.68
2018-11-14T00:12:12.494Z,10.53
2018-11-14T00:15:16.512Z,9.03
2018-11-14T00:18:19.296Z,9.60
2018-11-14T00:21:22.070Z,9.70
2018-11-14T00:24:24.976Z,10.53
2018-11-14T00:27:27.746Z,10.23
2018-11-14T00:30:30.540Z,10.47
2018-11-14T00:33:33.350Z,10.23
2018-11-14T00:36:36.138Z,10.03
2018-11-14T00:39:38.916Z,10.80
2018-11-14T00:42:42.300Z,10.77
2018-11-14T00:45:45.154Z,9.57
2018-11-14T00:48:47.928Z,11.65
2018-11-14T00:51:50.813Z,10.87
2018-11-14T00:54:53.608Z,10.87
2018-11-14T00:57:56.548Z,10.90
2018-11-14T01:00:59.347Z,12.07
2018-11-14T01:04:02.525Z,11.30
2018-11-14T01:07:05.369Z,10.80
2018-11-14T01:10:12.817Z,11.13
2018-11-14T01:13:15.766Z,10.88
2018-11-14T01:16:18.506Z,10.30
2018-11-14T01:19:21.290Z,10.63
2018-11-14T01:22:24.073Z,10.77
2018-11-14T01:25:26.923Z,10.65
2018-11-14T01:28:29.716Z,11.33
2018-11-14T01:31:32.514Z,10.40
2018-11-14T01:34:35.286Z,10.67
2018-11-14T01:37:38.121Z,9.63
2018-11-14T01:40:40.913Z,11.10
2018-11-14T01:43:43.694Z,9.55
2018-11-14T01:46:46.504Z,10.80
2018-11-14T01:49:49.286Z,10.37
2018-11-14T01:52:52.129Z,9.88
2018-11-14T01:55:54.970Z,9.87
2018-11-14T01:58:57.754Z,9.75
2018-11-14T02:02:00.532Z,10.33
2018-11-14T02:05:03.677Z,10.33
2018-11-14T02:08:06.484Z,10.50
2018-11-14T02:11:09.318Z,10.50
2018-11-14T02:14:12.101Z,9.88
2018-11-14T02:17:14.913Z,9.40
2018-11-14T02:20:17.749Z,9.58
2018-11-14T02:23:20.560Z,9.80
2018-11-14T02:26:23.338Z,9.63
2018-11-14T02:29:26.121Z,10.43
2018-11-14T02:32:28.913Z,9.47
2018-11-14T02:35:31.766Z,9.53
2018-11-14T02:38:34.550Z,10.20
2018-11-14T02:41:37.339Z,9.95
2018-11-14T02:44:40.137Z,9.98
2018-11-14T02:47:42.933Z,9.75
2018-11-14T02:50:45.729Z,9.30
2018-11-14T02:53:48.551Z,10.05
2018-11-14T02:56:51.441Z,8.58
2018-11-14T02:59:54.714Z,10.78
2018-11-14T03:02:57.808Z,10.95
2018-11-14T03:06:00.601Z,11.03
2018-11-14T03:09:04.554Z,9.53
2018-11-14T03:12:07.370Z,10.15
2018-11-14T03:15:12.457Z,10.87
2018-11-14T03:18:15.237Z,12.30
2018-11-14T03:21:18.051Z,12.20
2018-11-14T03:24:20.831Z,11.25
2018-11-14T03:27:23.690Z,11.45
2018-11-14T03:30:26.490Z,10.68
2018-11-14T03:33:29.313Z,10.43
2018-11-14T03:36:32.109Z,11.33
2018-11-14T03:39:35.025Z,12.00
2018-11-14T03:42:37.916Z,10.50
2018-11-14T03:45:40.737Z,11.67
2018-11-14T03:48:44.181Z,11.80
2018-11-14T03:51:47.095Z,11.78
2018-11-14T03:54:49.884Z,12.60
2018-11-14T03:57:52.845Z,13.00
2018-11-14T04:00:55.632Z,11.38
2018-11-14T04:03:58.448Z,11.73
2018-11-14T04:07:01.275Z,12.47
2018-11-14T04:10:05.426Z,13.83
2018-11-14T04:13:08.211Z,12.65
2018-11-14T04:16:11.018Z,12.17
2018-11-14T04:19:13.793Z,13.10
2018-11-14T04:22:16.858Z,12.70
2018-11-14T04:25:20.473Z,13.70
2018-11-14T04:28:23.277Z,13.60
2018-11-14T04:31:26.141Z,14.23
2018-11-14T04:34:28.958Z,13.80
2018-11-14T04:37:31.785Z,14.95
2018-11-14T04:40:34.575Z,13.40
2018-11-14T04:43:37.366Z,14.93
2018-11-14T04:46:40.228Z,13.80
2018-11-14T04:49:43.010Z,15.47
2018-11-14T04:52:46.710Z,15.48
2018-11-14T04:55:49.497Z,14.28
2018-11-14T04:58:52.385Z,15.00
2018-11-14T05:01:55.197Z,14.75
2018-11-14T05:04:57.987Z,15.40
2018-11-14T05:08:00.845Z,13.63
2018-11-14T05:11:03.654Z,15.43
2018-11-14T05:14:07.194Z,15.23
2018-11-14T05:17:09.994Z,14.17
2018-11-14T05:20:14.917Z,14.97
2018-11-14T05:23:17.706Z,14.73
2018-11-14T05:26:20.546Z,14.93
2018-11-14T05:29:23.334Z,14.35
2018-11-14T05:32:26.477Z,13.60
2018-11-14T05:35:29.271Z,15.47
2018-11-14T05:38:32.089Z,15.70
2018-11-14T05:41:34.920Z,14.07
2018-11-14T05:44:37.706Z,15.37
2018-11-14T05:47:40.482Z,15.70
2018-11-14T05:50:43.284Z,14.03
2018-11-14T05:53:46.353Z,16.37
2018-11-14T05:56:49.259Z,16.03
2018-11-14T05:59:52.826Z,14.87
2018-11-14T06:02:56.925Z,15.90
2018-11-14T06:06:00.457Z,16.07
2018-11-14T06:09:04.517Z,17.00
2018-11-14T06:12:08.845Z,16.80
2018-11-14T06:15:14.036Z,16.75
2018-11-14T06:18:18.705Z,15.97
2018-11-14T06:21:22.421Z,16.90
2018-11-14T06:24:26.713Z,17.00
2018-11-14T06:27:32.086Z,18.48
2018-11-14T06:30:36.757Z,18.37
2018-11-14T06:33:41.817Z,17.48
2018-11-14T06:36:45.289Z,17.10
2018-11-14T06:39:49.591Z,18.87
2018-11-14T06:42:53.490Z,18.70
2018-11-14T06:45:57.057Z,17.50
2018-11-14T06:49:01.273Z,18.27
2018-11-14T06:52:05.358Z,18.50
2018-11-14T06:55:10.383Z,19.60
2018-11-14T06:58:13.357Z,19.10
2018-11-14T07:01:17.062Z,20.73
2018-11-14T07:04:20.778Z,18.23
2018-11-14T07:07:25.549Z,19.75
2018-11-14T07:10:30.970Z,20.83
2018-11-14T07:13:33.941Z,20.83
2018-11-14T07:16:37.444Z,20.70
2018-11-14T07:19:40.449Z,20.13
2018-11-14T07:22:44.142Z,19.48
2018-11-14T07:25:47.233Z,21.85
2018-11-14T07:28:50.203Z,21.53
2018-11-14T07:31:53.203Z,20.47
2018-11-14T07:34:56.330Z,21.33
2018-11-14T07:39:08.755Z,22.00
2018-11-14T07:42:11.813Z,20.57
2018-11-14T07:45:15.953Z,20.10
2018-11-14T07:48:19.538Z,22.15
2018-11-14T07:51:23.803Z,18.92
2018-11-14T07:54:27.840Z,19.85
2018-11-14T07:57:32.448Z,21.40
2018-11-14T08:00:36.086Z,21.57
2018-11-14T08:03:40.945Z,23.80
2018-11-14T08:06:45.229Z,22.70
2018-11-14T08:09:49.905Z,18.07
2018-11-14T08:12:53.122Z,20.95
2018-11-14T08:15:57.954Z,20.88
2018-11-14T08:19:01.682Z,20.53
2018-11-14T08:22:06.029Z,19.65
2018-11-14T08:25:09.353Z,19.43
2018-11-14T08:28:14.658Z,22.00
2018-11-14T08:31:18.162Z,21.25
2018-11-14T08:34:22.044Z,21.57
2018-11-14T08:37:25.900Z,19.30
2018-11-14T08:40:30.322Z,19.82
2018-11-14T08:43:33.473Z,19.97
2018-11-14T08:46:38.163Z,21.30
2018-11-14T08:49:43.226Z,22.57
2018-11-14T08:52:46.298Z,21.50
2018-11-14T08:55:49.425Z,21.40
2018-11-14T08:58:52.970Z,23.27
2018-11-14T09:01:57.141Z,23.23
2018-11-14T09:05:00.205Z,21.42
2018-11-14T09:08:04.505Z,21.82
2018-11-14T09:11:20.027Z,22.70
2018-11-14T09:14:23.033Z,20.05
2018-11-14T09:17:26.926Z,20.62
2018-11-14T09:20:30.986Z,20.20
2018-11-14T09:23:35.305Z,20.47
2018-11-14T09:26:39.281Z,20.75
2018-11-14T09:29:42.862Z,20.35
2018-11-14T09:32:47.107Z,19.35
2018-11-14T09:35:50.685Z,20.53
2018-11-14T09:38:55.506Z,19.57
2018-11-14T09:41:59.248Z,19.10
2018-11-14T09:45:02.966Z,18.53
2018-11-14T09:48:06.741Z,19.00
2018-11-14T09:51:10.414Z,19.77
2018-11-14T09:54:14.609Z,18.00
2018-11-14T09:57:18.137Z,18.23
2018-11-14T10:00:29.033Z,17.90
2018-11-14T10:03:33.162Z,18.43
2018-11-14T10:06:36.162Z,17.33
2018-11-14T10:09:39.968Z,16.67
2018-11-14T10:12:43.813Z,20.35
2018-11-14T10:15:48.015Z,17.87
2018-11-14T10:18:51.502Z,16.85
2018-11-14T10:21:55.254Z,18.48
2018-11-14T10:24:59.851Z,17.42
2018-11-14T10:28:04.127Z,17.60
2018-11-14T10:31:08.590Z,14.83
2018-11-14T10:34:11.565Z,16.07
2018-11-14T10:37:15.613Z,16.65
2018-11-14T10:40:23.441Z,17.70
2018-11-14T10:43:27.574Z,17.07
2018-11-14T10:46:31.838Z,15.80
2018-11-14T10:49:35.577Z,14.43
2018-11-14T10:52:39.529Z,15.78
2018-11-14T10:55:43.485Z,16.55
2018-11-14T10:58:48.090Z,16.37
2018-11-14T11:01:56.506Z,13.80
2018-11-14T11:05:04.858Z,15.38
2018-11-14T11:08:14.897Z,17.12
2018-11-14T11:12:22.258Z,15.13
2018-11-14T11:15:31.334Z,16.50
2018-11-14T11:18:36.101Z,14.00
2018-11-14T11:21:40.086Z,14.35
2018-11-14T11:24:43.147Z,14.83
2018-11-14T11:27:48.216Z,13.95
2018-11-14T11:30:52.903Z,16.20
2018-11-14T11:33:56.534Z,13.98
2018-11-14T11:36:59.666Z,14.28
2018-11-14T11:40:04.022Z,14.40
2018-11-14T11:43:07.701Z,14.53
2018-11-14T11:46:11.997Z,15.53
2018-11-14T11:49:16.213Z,15.25
2018-11-14T11:52:19.993Z,15.80
2018-11-14T11:55:23.469Z,14.98
2018-11-14T11:58:26.462Z,16.05
2018-11-14T12:01:30.065Z,17.23
2018-11-14T12:04:34.719Z,14.18
2018-11-14T12:07:37.874Z,15.40
2018-11-14T12:10:40.929Z,16.07
2018-11-14T12:13:44.231Z,15.83
2018-11-14T12:16:47.408Z,15.83
2018-11-14T12:19:50.530Z,15.00
2018-11-14T12:22:53.655Z,15.53
2018-11-14T12:25:56.894Z,15.00
2018-11-14T12:29:00.526Z,14.28
2018-11-14T12:32:04.133Z,14.55
2018-11-14T12:35:09.030Z,14.83
2018-11-14T12:38:12.460Z,14.58
2018-11-14T12:41:15.463Z,14.25
2018-11-14T12:44:18.719Z,14.75
2018-11-14T12:47:21.878Z,13.98
2018-11-14T12:50:24.901Z,14.30
2018-11-14T12:53:27.959Z,14.50
2018-11-14T12:56:30.992Z,14.80
2018-11-14T12:59:34.109Z,14.58
2018-11-14T13:02:37.407Z,13.80
2018-11-14T13:05:40.443Z,15.00
2018-11-14T13:08:43.563Z,14.75
2018-11-14T13:11:46.615Z,16.20
2018-11-14T13:14:49.654Z,14.55
2018-11-14T13:17:52.908Z,15.55
2018-11-14T13:20:56.035Z,15.30
2018-11-14T13:23:59.195Z,15.30
2018-11-14T13:27:02.319Z,15.45
2018-11-14T13:30:07.736Z,15.45
2018-11-14T13:33:10.862Z,15.88
2018-11-14T13:36:13.915Z,15.20
2018-11-14T13:39:16.941Z,15.38
2018-11-14T13:42:20.437Z,16.37
2018-11-14T13:45:23.646Z,15.93
2018-11-14T13:48:26.707Z,16.52
2018-11-14T13:51:30.387Z,17.05
2018-11-14T13:54:33.487Z,15.70
2018-11-14T13:57:36.484Z,16.23
2018-11-14T14:00:39.508Z,17.02
2018-11-14T14:03:42.567Z,16.63
2018-11-14T14:06:46.001Z,18.15
2018-11-14T14:09:49.108Z,16.40
2018-11-14T14:12:53.526Z,16.52
2018-11-14T14:15:57.239Z,17.35
2018-11-14T14:19:00.310Z,18.07
2018-11-14T14:22:03.405Z,16.10
2018-11-14T14:25:07.827Z,17.23
2018-11-14T14:28:12.566Z,16.10
2018-11-14T14:31:15.727Z,16.70
2018-11-14T14:34:19.567Z,16.93
2018-11-14T14:37:22.831Z,15.63
2018-11-14T14:40:26.157Z,17.30
2018-11-14T14:43:30.039Z,17.10
2018-11-14T14:46:33.675Z,18.30
2018-11-14T14:49:36.747Z,16.45
2018-11-14T14:52:40.679Z,16.45
2018-11-14T14:55:43.735Z,15.60
2018-11-14T14:58:47.066Z,17.20
2018-11-14T15:01:50.134Z,16.75
2018-11-14T15:04:53.563Z,16.57
2018-11-14T15:07:56.831Z,16.40
2018-11-14T15:11:00.271Z,15.93
2018-11-14T15:14:03.399Z,16.47
2018-11-14T15:17:06.558Z,17.27
2018-11-14T15:20:13.063Z,16.60
2018-11-14T15:23:16.215Z,16.37
2018-11-14T15:26:19.280Z,17.57
2018-11-14T15:29:22.710Z,16.57
2018-11-14T15:32:25.743Z,16.07
2018-11-14T15:35:28.791Z,17.70
2018-11-14T15:38:31.851Z,16.48
2018-11-14T15:41:34.971Z,18.00
2018-11-14T15:44:38.033Z,16.70
2018-11-14T15:47:41.738Z,17.40
2018-11-14T15:50:44.731Z,16.48
2018-11-14T15:53:48.898Z,16.52
2018-11-14T15:56:51.991Z,16.15
2018-11-14T15:59:55.131Z,16.27
2018-11-14T16:02:58.119Z,17.85
2018-11-14T16:06:01.116Z,16.50
2018-11-14T16:09:07.071Z,17.80
2018-11-14T16:12:10.063Z,16.95
2018-11-14T16:15:14.279Z,16.65
2018-11-14T16:18:17.384Z,16.67
2018-11-14T16:21:20.466Z,16.35
2018-11-14T16:24:23.483Z,16.30
2018-11-14T16:27:26.542Z,16.60
2018-11-14T16:30:31.411Z,16.23
2018-11-14T16:33:34.911Z,16.17
2018-11-14T16:36:38.227Z,15.72
2018-11-14T16:39:41.370Z,18.93
2018-11-14T16:42:44.885Z,17.37
2018-11-14T16:45:48.562Z,16.52
2018-11-14T16:48:51.978Z,17.50
2018-11-14T16:51:54.974Z,18.48
2018-11-14T16:54:57.962Z,19.10
2018-11-14T16:58:00.951Z,16.80
2018-11-14T17:01:04.151Z,17.60
2018-11-14T17:04:07.322Z,18.30
2018-11-14T17:07:10.334Z,18.23
2018-11-14T17:10:17.827Z,17.93
2018-11-14T17:13:20.815Z,18.53
2018-11-14T17:16:23.915Z,18.32
2018-11-14T17:19:27.007Z,17.32
2018-11-14T17:22:30.607Z,18.83
2018-11-14T17:25:33.753Z,18.50
2018-11-14T17:28:36.828Z,19.63
2018-11-14T17:31:39.860Z,18.23
2018-11-14T17:34:43.587Z,17.50
2018-11-14T17:37:47.294Z,16.10
2018-11-14T17:40:50.282Z,18.43
2018-11-14T17:43:54.094Z,19.93
2018-11-14T17:46:57.182Z,19.82
2018-11-14T17:50:01.389Z,20.93
2018-11-14T17:53:04.600Z,19.67
2018-11-14T17:56:07.588Z,18.07
2018-11-14T17:59:11.010Z,18.82
2018-11-14T18:02:14.938Z,21.07
2018-11-14T18:05:20.862Z,20.87
2018-11-14T18:08:25.081Z,18.37
2018-11-14T18:11:28.589Z,19.43
2018-11-14T18:14:31.614Z,18.52
2018-11-14T18:17:34.785Z,20.27
2018-11-14T18:20:37.753Z,24.07
2018-11-14T18:23:42.385Z,20.87
2018-11-14T18:26:46.556Z,19.93
2018-11-14T18:29:50.876Z,22.80
2018-11-14T18:32:54.655Z,22.77
2018-11-14T18:35:58.842Z,22.37
2018-11-14T18:39:03.529Z,21.07
2018-11-14T18:42:06.546Z,24.73
2018-11-14T18:45:12.997Z,20.60
2018-11-14T18:48:16.862Z,21.00
2018-11-14T18:51:20.563Z,19.37
2018-11-14T18:54:24.570Z,21.60
2018-11-14T18:57:28.504Z,18.13
2018-11-14T19:00:33.536Z,19.57
2018-11-14T19:03:37.606Z,19.40
2018-11-14T19:06:41.231Z,21.53
2018-11-14T19:09:44.766Z,23.30
2018-11-14T19:12:48.953Z,27.17
2018-11-14T19:15:51.855Z,26.47
2018-11-14T19:18:55.428Z,29.70
2018-11-14T19:21:58.937Z,33.93
2018-11-14T19:25:03.061Z,33.77
2018-11-14T19:28:06.865Z,32.90
2018-11-14T19:31:09.905Z,30.40
2018-11-14T19:34:14.526Z,23.98
2018-11-14T19:37:17.574Z,33.83
2018-11-14T19:40:22.452Z,34.67
2018-11-14T19:43:26.078Z,31.70
2018-11-14T19:46:32.917Z,28.07
2018-11-14T19:49:37.671Z,27.17
2018-11-14T19:52:41.467Z,22.83
2018-11-14T19:55:45.146Z,21.37
2018-11-14T19:58:49.844Z,22.20
2018-11-14T20:01:55.386Z,24.20
2018-11-14T20:04:58.370Z,24.07
2018-11-14T20:08:02.783Z,30.53
2018-11-14T20:11:06.870Z,35.00
2018-11-14T20:14:10.450Z,34.57
2018-11-14T20:17:15.550Z,36.80
2018-11-14T20:20:21.299Z,38.37
2018-11-14T20:23:25.586Z,37.17
2018-11-14T20:26:29.859Z,36.20
2018-11-14T20:29:33.489Z,34.40
2018-11-14T20:32:36.757Z,33.70
2018-11-14T20:35:41.071Z,39.43
2018-11-14T20:38:45.090Z,32.60
2018-11-14T20:41:49.124Z,32.37
2018-11-14T20:44:53.649Z,30.57
2018-11-14T20:47:56.709Z,33.80
2018-11-14T20:51:00.339Z,34.60
2018-11-14T20:54:04.576Z,35.37
2018-11-14T20:57:08.422Z,35.10
2018-11-14T21:00:17.097Z,32.60
2018-11-14T21:03:22.353Z,26.73
2018-11-14T21:06:26.746Z,29.67
2018-11-14T21:09:30.577Z,27.47
2018-11-14T21:12:34.881Z,29.60
2018-11-14T21:15:39.497Z,30.03
2018-11-14T21:18:44.438Z,30.17
2018-11-14T21:21:47.906Z,30.70
2018-11-14T21:24:53.131Z,29.07
2018-11-14T21:27:56.550Z,27.00
2018-11-14T21:31:01.313Z,29.80
2018-11-14T21:34:05.841Z,27.93
2018-11-14T21:37:10.137Z,26.30
2018-11-14T21:40:13.437Z,30.00
2018-11-14T21:43:16.925Z,32.27
2018-11-14T21:46:19.967Z,29.57
2018-11-14T21:49:26.908Z,30.43
2018-11-14T21:52:31.071Z,31.13
2018-11-14T21:55:34.705Z,31.15
2018-11-14T21:58:38.176Z,30.87
2018-11-14T22:01:42.380Z,31.73
2018-11-14T22:04:46.677Z,29.30
2018-11-14T22:07:50.273Z,29.90
2018-11-14T22:10:53.753Z,27.93
2018-11-14T22:13:57.341Z,29.27
2018-11-14T22:17:02.369Z,28.43
2018-11-14T22:20:07.298Z,31.57
2018-11-14T22:23:10.349Z,31.67
2018-11-14T22:26:13.998Z,28.93
2018-11-14T22:29:17.505Z,30.40
2018-11-14T22:32:21.058Z,32.17
2018-11-14T22:35:26.304Z,27.47
2018-11-14T22:38:29.715Z,29.83
2018-11-14T22:41:33.646Z,28.50
2018-11-14T22:44:36.653Z,30.08
2018-11-14T22:47:41.399Z,30.03
2018-11-14T22:50:44.537Z,29.67
2018-11-14T22:53:48.633Z,27.67
2018-11-14T22:56:53.130Z,29.43
2018-11-14T22:59:56.924Z,31.10
2018-11-14T23:03:01.730Z,27.77
2018-11-14T23:06:05.668Z,28.00
2018-11-14T23:09:12.157Z,30.37
2018-11-14T23:12:16.060Z,26.57
2018-11-14T23:15:21.045Z,38.42
2018-11-14T23:18:24.169Z,29.70
2018-11-14T23:21:29.037Z,26.97
2018-11-14T23:24:33.010Z,27.57
2018-11-14T23:27:36.065Z,29.87
2018-11-14T23:30:39.487Z,27.93
2018-11-14T23:33:44.498Z,30.73
2018-11-14T23:36:48.641Z,30.60
2018-11-14T23:39:52.194Z,27.37
2018-11-14T23:42:56.493Z,30.43
2018-11-14T23:46:00.049Z,28.53
2018-11-14T23:49:04.217Z,29.70
2018-11-14T23:52:07.734Z,28.47
2018-11-14T23:55:10.777Z,30.32
2018-11-14T23:58:14.595Z,30.43
